sensor_id;sensor_type;location;lat;lon;timestamp;P1;durP1;ratioP1;P2;durP2;ratioP2
38972;SDS011;25333;50.762;4.470;2023-07-20T00:00:28;4.57;;;1.08;;
38972;SDS011;25333;50.762;4.470;2023-07-20T00:03:09;2.95;;;0.95;;
38972;SDS011;25333;50.762;4.470;2023-07-20T00:05:41;2.65;;;1.35;;
38972;SDS011;25333;50.762;4.470;2023-07-20T00:08:11;3.97;;;0.98;;
38972;SDS011;25333;50.762;4.470;2023-07-20T00:10:36;4.53;;;1.50;;
38972;SDS011;25333;50.762;4.470;2023-07-20T00:13:02;4.32;;;1.05;;
38972;SDS011;25333;50.762;4.470;2023-07-20T00:15:28;3.90;;;1.33;;
38972;SDS011;25333;50.762;4.470;2023-07-20T00:17:53;4.85;;;1.20;;
38972;SDS011;25333;50.762;4.470;2023-07-20T00:20:19;2.93;;;1.00;;
38972;SDS011;25333;50.762;4.470;2023-07-20T00:22:45;2.80;;;1.13;;
38972;SDS011;25333;50.762;4.470;2023-07-20T00:25:10;1.75;;;0.95;;
38972;SDS011;25333;50.762;4.470;2023-07-20T00:27:36;4.65;;;1.88;;
38972;SDS011;25333;50.762;4.470;2023-07-20T00:30:03;3.35;;;0.80;;
38972;SDS011;25333;50.762;4.470;2023-07-20T00:32:29;5.88;;;1.60;;
38972;SDS011;25333;50.762;4.470;2023-07-20T00:34:55;4.60;;;1.43;;
38972;SDS011;25333;50.762;4.470;2023-07-20T00:37:20;5.82;;;1.73;;
38972;SDS011;25333;50.762;4.470;2023-07-20T00:39:46;2.50;;;0.98;;
38972;SDS011;25333;50.762;4.470;2023-07-20T00:42:12;2.33;;;0.90;;
38972;SDS011;25333;50.762;4.470;2023-07-20T00:44:37;2.97;;;1.30;;
38972;SDS011;25333;50.762;4.470;2023-07-20T00:47:03;3.53;;;0.83;;
38972;SDS011;25333;50.762;4.470;2023-07-20T00:49:30;3.08;;;1.20;;
38972;SDS011;25333;50.762;4.470;2023-07-20T00:51:56;4.50;;;1.45;;
38972;SDS011;25333;50.762;4.470;2023-07-20T00:54:22;1.98;;;0.95;;
38972;SDS011;25333;50.762;4.470;2023-07-20T00:56:48;2.88;;;1.55;;
38972;SDS011;25333;50.762;4.470;2023-07-20T00:59:15;3.95;;;1.42;;
38972;SDS011;25333;50.762;4.470;2023-07-20T01:01:41;2.90;;;1.10;;
38972;SDS011;25333;50.762;4.470;2023-07-20T01:04:06;2.95;;;1.50;;
38972;SDS011;25333;50.762;4.470;2023-07-20T01:06:37;1.98;;;0.88;;
38972;SDS011;25333;50.762;4.470;2023-07-20T01:11:37;4.27;;;1.20;;
38972;SDS011;25333;50.762;4.470;2023-07-20T01:14:08;4.63;;;1.52;;
38972;SDS011;25333;50.762;4.470;2023-07-20T01:16:36;4.20;;;1.60;;
38972;SDS011;25333;50.762;4.470;2023-07-20T01:19:02;3.60;;;1.05;;
38972;SDS011;25333;50.762;4.470;2023-07-20T01:21:31;2.67;;;0.93;;
38972;SDS011;25333;50.762;4.470;2023-07-20T01:27:00;2.30;;;1.27;;
38972;SDS011;25333;50.762;4.470;2023-07-20T01:32:07;3.30;;;1.15;;
38972;SDS011;25333;50.762;4.470;2023-07-20T01:34:35;4.65;;;1.40;;
38972;SDS011;25333;50.762;4.470;2023-07-20T01:37:01;3.08;;;1.30;;
38972;SDS011;25333;50.762;4.470;2023-07-20T01:39:28;2.20;;;0.93;;
38972;SDS011;25333;50.762;4.470;2023-07-20T01:41:54;2.85;;;1.13;;
38972;SDS011;25333;50.762;4.470;2023-07-20T01:44:21;4.43;;;1.20;;
38972;SDS011;25333;50.762;4.470;2023-07-20T01:46:47;4.70;;;1.80;;
38972;SDS011;25333;50.762;4.470;2023-07-20T01:49:12;4.82;;;1.73;;
38972;SDS011;25333;50.762;4.470;2023-07-20T01:51:38;2.77;;;1.40;;
38972;SDS011;25333;50.762;4.470;2023-07-20T01:54:03;5.03;;;1.93;;
38972;SDS011;25333;50.762;4.470;2023-07-20T01:56:29;5.07;;;1.57;;
38972;SDS011;25333;50.762;4.470;2023-07-20T01:58:54;4.95;;;1.60;;
38972;SDS011;25333;50.762;4.470;2023-07-20T02:01:20;2.80;;;1.48;;
38972;SDS011;25333;50.762;4.470;2023-07-20T02:03:46;3.05;;;1.33;;
38972;SDS011;25333;50.762;4.470;2023-07-20T02:06:11;3.40;;;1.53;;
38972;SDS011;25333;50.762;4.470;2023-07-20T02:08:37;3.30;;;1.77;;
38972;SDS011;25333;50.762;4.470;2023-07-20T02:11:03;5.27;;;1.70;;
38972;SDS011;25333;50.762;4.470;2023-07-20T02:13:29;3.50;;;1.63;;
38972;SDS011;25333;50.762;4.470;2023-07-20T02:15:55;4.63;;;2.20;;
38972;SDS011;25333;50.762;4.470;2023-07-20T02:18:20;6.22;;;1.85;;
38972;SDS011;25333;50.762;4.470;2023-07-20T02:20:46;5.00;;;2.33;;
38972;SDS011;25333;50.762;4.470;2023-07-20T02:23:11;6.90;;;2.43;;
38972;SDS011;25333;50.762;4.470;2023-07-20T02:25:37;4.20;;;1.97;;
38972;SDS011;25333;50.762;4.470;2023-07-20T02:28:03;3.20;;;1.98;;
38972;SDS011;25333;50.762;4.470;2023-07-20T02:30:29;5.85;;;2.42;;
38972;SDS011;25333;50.762;4.470;2023-07-20T02:32:55;4.53;;;2.35;;
38972;SDS011;25333;50.762;4.470;2023-07-20T02:35:23;3.67;;;2.08;;
38972;SDS011;25333;50.762;4.470;2023-07-20T02:37:49;5.30;;;2.75;;
38972;SDS011;25333;50.762;4.470;2023-07-20T02:40:14;6.68;;;2.63;;
38972;SDS011;25333;50.762;4.470;2023-07-20T02:42:40;4.73;;;1.87;;
38972;SDS011;25333;50.762;4.470;2023-07-20T02:45:06;8.33;;;3.00;;
38972;SDS011;25333;50.762;4.470;2023-07-20T02:47:32;4.97;;;2.08;;
38972;SDS011;25333;50.762;4.470;2023-07-20T02:49:58;4.13;;;2.33;;
38972;SDS011;25333;50.762;4.470;2023-07-20T02:52:23;7.18;;;3.30;;
38972;SDS011;25333;50.762;4.470;2023-07-20T02:54:49;6.57;;;3.20;;
38972;SDS011;25333;50.762;4.470;2023-07-20T02:57:15;6.13;;;2.63;;
38972;SDS011;25333;50.762;4.470;2023-07-20T02:59:40;3.57;;;2.03;;
38972;SDS011;25333;50.762;4.470;2023-07-20T03:02:06;4.87;;;2.47;;
38972;SDS011;25333;50.762;4.470;2023-07-20T03:04:34;6.15;;;2.58;;
38972;SDS011;25333;50.762;4.470;2023-07-20T03:07:02;4.85;;;2.60;;
38972;SDS011;25333;50.762;4.470;2023-07-20T03:09:29;6.43;;;2.90;;
38972;SDS011;25333;50.762;4.470;2023-07-20T03:11:54;6.07;;;3.07;;
38972;SDS011;25333;50.762;4.470;2023-07-20T03:14:20;6.60;;;2.87;;
38972;SDS011;25333;50.762;4.470;2023-07-20T03:16:46;3.30;;;2.42;;
38972;SDS011;25333;50.762;4.470;2023-07-20T03:19:11;6.05;;;2.78;;
38972;SDS011;25333;50.762;4.470;2023-07-20T03:21:37;6.25;;;2.75;;
38972;SDS011;25333;50.762;4.470;2023-07-20T03:24:06;7.03;;;2.63;;
38972;SDS011;25333;50.762;4.470;2023-07-20T03:26:33;4.30;;;2.33;;
38972;SDS011;25333;50.762;4.470;2023-07-20T03:28:59;5.80;;;3.10;;
38972;SDS011;25333;50.762;4.470;2023-07-20T03:31:25;9.18;;;2.95;;
38972;SDS011;25333;50.762;4.470;2023-07-20T03:33:51;5.07;;;2.70;;
38972;SDS011;25333;50.762;4.470;2023-07-20T03:36:17;7.03;;;2.95;;
38972;SDS011;25333;50.762;4.470;2023-07-20T03:38:43;8.03;;;4.17;;
38972;SDS011;25333;50.762;4.470;2023-07-20T03:41:08;6.75;;;3.50;;
38972;SDS011;25333;50.762;4.470;2023-07-20T03:43:34;7.32;;;3.78;;
38972;SDS011;25333;50.762;4.470;2023-07-20T03:46:00;8.02;;;3.17;;
38972;SDS011;25333;50.762;4.470;2023-07-20T03:48:25;5.87;;;3.10;;
38972;SDS011;25333;50.762;4.470;2023-07-20T03:50:52;6.90;;;3.50;;
38972;SDS011;25333;50.762;4.470;2023-07-20T03:53:18;6.55;;;3.58;;
38972;SDS011;25333;50.762;4.470;2023-07-20T03:55:45;5.47;;;3.40;;
38972;SDS011;25333;50.762;4.470;2023-07-20T03:58:11;4.65;;;3.20;;
38972;SDS011;25333;50.762;4.470;2023-07-20T04:00:37;5.78;;;3.15;;
38972;SDS011;25333;50.762;4.470;2023-07-20T04:03:03;7.78;;;3.17;;
38972;SDS011;25333;50.762;4.470;2023-07-20T04:05:29;6.63;;;4.00;;
38972;SDS011;25333;50.762;4.470;2023-07-20T04:07:55;8.23;;;4.60;;
38972;SDS011;25333;50.762;4.470;2023-07-20T04:10:20;8.18;;;3.90;;
38972;SDS011;25333;50.762;4.470;2023-07-20T04:12:46;10.87;;;4.60;;
38972;SDS011;25333;50.762;4.470;2023-07-20T04:15:12;6.85;;;4.00;;
38972;SDS011;25333;50.762;4.470;2023-07-20T04:17:38;6.65;;;4.60;;
38972;SDS011;25333;50.762;4.470;2023-07-20T04:20:05;6.25;;;4.18;;
38972;SDS011;25333;50.762;4.470;2023-07-20T04:22:31;6.88;;;4.03;;
38972;SDS011;25333;50.762;4.470;2023-07-20T04:24:57;6.23;;;4.07;;
38972;SDS011;25333;50.762;4.470;2023-07-20T04:27:23;6.90;;;4.30;;
38972;SDS011;25333;50.762;4.470;2023-07-20T04:29:48;6.60;;;4.17;;
38972;SDS011;25333;50.762;4.470;2023-07-20T04:32:14;8.80;;;4.90;;
38972;SDS011;25333;50.762;4.470;2023-07-20T04:34:39;9.27;;;6.35;;
38972;SDS011;25333;50.762;4.470;2023-07-20T04:37:06;7.95;;;4.82;;
38972;SDS011;25333;50.762;4.470;2023-07-20T04:39:31;6.85;;;4.55;;
38972;SDS011;25333;50.762;4.470;2023-07-20T04:41:57;6.88;;;4.30;;
38972;SDS011;25333;50.762;4.470;2023-07-20T04:44:23;7.60;;;4.60;;
38972;SDS011;25333;50.762;4.470;2023-07-20T04:46:49;10.90;;;5.88;;
38972;SDS011;25333;50.762;4.470;2023-07-20T04:49:15;7.63;;;5.93;;
38972;SDS011;25333;50.762;4.470;2023-07-20T04:51:40;9.30;;;5.50;;
38972;SDS011;25333;50.762;4.470;2023-07-20T04:54:06;6.53;;;5.32;;
38972;SDS011;25333;50.762;4.470;2023-07-20T04:56:32;10.73;;;5.38;;
38972;SDS011;25333;50.762;4.470;2023-07-20T04:58:58;7.97;;;6.03;;
38972;SDS011;25333;50.762;4.470;2023-07-20T05:01:24;9.63;;;6.03;;
38972;SDS011;25333;50.762;4.470;2023-07-20T05:03:49;10.60;;;5.77;;
38972;SDS011;25333;50.762;4.470;2023-07-20T05:06:15;8.93;;;5.53;;
38972;SDS011;25333;50.762;4.470;2023-07-20T05:08:41;11.70;;;6.30;;
38972;SDS011;25333;50.762;4.470;2023-07-20T05:11:06;12.18;;;7.05;;
38972;SDS011;25333;50.762;4.470;2023-07-20T05:13:32;9.25;;;6.68;;
38972;SDS011;25333;50.762;4.470;2023-07-20T05:15:58;11.77;;;7.85;;
38972;SDS011;25333;50.762;4.470;2023-07-20T05:18:24;11.05;;;7.95;;
38972;SDS011;25333;50.762;4.470;2023-07-20T05:20:50;11.75;;;7.65;;
38972;SDS011;25333;50.762;4.470;2023-07-20T05:23:19;10.80;;;7.38;;
38972;SDS011;25333;50.762;4.470;2023-07-20T05:25:53;13.88;;;8.05;;
38972;SDS011;25333;50.762;4.470;2023-07-20T05:28:23;12.63;;;7.97;;
38972;SDS011;25333;50.762;4.470;2023-07-20T05:30:49;9.37;;;7.97;;
38972;SDS011;25333;50.762;4.470;2023-07-20T05:33:17;15.17;;;9.00;;
38972;SDS011;25333;50.762;4.470;2023-07-20T05:35:43;14.38;;;9.20;;
38972;SDS011;25333;50.762;4.470;2023-07-20T05:38:08;16.98;;;10.27;;
38972;SDS011;25333;50.762;4.470;2023-07-20T05:40:37;13.82;;;9.73;;
38972;SDS011;25333;50.762;4.470;2023-07-20T05:43:06;15.55;;;10.27;;
38972;SDS011;25333;50.762;4.470;2023-07-20T05:45:32;15.68;;;9.55;;
38972;SDS011;25333;50.762;4.470;2023-07-20T05:47:57;13.13;;;10.10;;
38972;SDS011;25333;50.762;4.470;2023-07-20T05:50:23;14.25;;;10.57;;
38972;SDS011;25333;50.762;4.470;2023-07-20T05:52:48;15.27;;;9.98;;
38972;SDS011;25333;50.762;4.470;2023-07-20T05:55:17;15.07;;;10.85;;
38972;SDS011;25333;50.762;4.470;2023-07-20T05:57:42;10.67;;;8.80;;
38972;SDS011;25333;50.762;4.470;2023-07-20T06:00:08;13.13;;;9.47;;
38972;SDS011;25333;50.762;4.470;2023-07-20T06:02:34;16.02;;;10.82;;
38972;SDS011;25333;50.762;4.470;2023-07-20T06:05:00;13.10;;;9.87;;
38972;SDS011;25333;50.762;4.470;2023-07-20T06:07:26;14.98;;;11.13;;
38972;SDS011;25333;50.762;4.470;2023-07-20T06:09:51;16.23;;;11.32;;
38972;SDS011;25333;50.762;4.470;2023-07-20T06:12:17;14.73;;;10.80;;
38972;SDS011;25333;50.762;4.470;2023-07-20T06:14:43;16.75;;;11.07;;
38972;SDS011;25333;50.762;4.470;2023-07-20T06:17:08;15.80;;;12.00;;
38972;SDS011;25333;50.762;4.470;2023-07-20T06:19:34;14.50;;;9.97;;
38972;SDS011;25333;50.762;4.470;2023-07-20T06:22:00;13.85;;;9.95;;
38972;SDS011;25333;50.762;4.470;2023-07-20T06:24:26;15.60;;;11.27;;
38972;SDS011;25333;50.762;4.470;2023-07-20T06:26:51;13.10;;;10.60;;
38972;SDS011;25333;50.762;4.470;2023-07-20T06:29:17;16.27;;;10.07;;
38972;SDS011;25333;50.762;4.470;2023-07-20T06:31:43;15.50;;;10.88;;
38972;SDS011;25333;50.762;4.470;2023-07-20T06:34:09;15.50;;;10.82;;
38972;SDS011;25333;50.762;4.470;2023-07-20T06:36:35;13.68;;;10.88;;
38972;SDS011;25333;50.762;4.470;2023-07-20T06:39:00;15.77;;;11.18;;
38972;SDS011;25333;50.762;4.470;2023-07-20T06:41:27;15.20;;;11.40;;
38972;SDS011;25333;50.762;4.470;2023-07-20T06:43:53;17.13;;;12.20;;
38972;SDS011;25333;50.762;4.470;2023-07-20T06:46:23;16.07;;;11.47;;
38972;SDS011;25333;50.762;4.470;2023-07-20T06:48:51;17.25;;;11.45;;
38972;SDS011;25333;50.762;4.470;2023-07-20T06:51:17;15.32;;;10.73;;
38972;SDS011;25333;50.762;4.470;2023-07-20T06:53:43;17.27;;;11.60;;
38972;SDS011;25333;50.762;4.470;2023-07-20T06:56:08;13.23;;;10.43;;
38972;SDS011;25333;50.762;4.470;2023-07-20T06:58:34;12.07;;;9.35;;
38972;SDS011;25333;50.762;4.470;2023-07-20T07:01:04;11.48;;;9.25;;
38972;SDS011;25333;50.762;4.470;2023-07-20T07:03:30;12.80;;;10.25;;
38972;SDS011;25333;50.762;4.470;2023-07-20T07:05:56;13.17;;;9.43;;
38972;SDS011;25333;50.762;4.470;2023-07-20T07:08:22;12.70;;;9.50;;
38972;SDS011;25333;50.762;4.470;2023-07-20T07:10:47;11.97;;;9.23;;
38972;SDS011;25333;50.762;4.470;2023-07-20T07:13:13;12.63;;;9.43;;
38972;SDS011;25333;50.762;4.470;2023-07-20T07:15:38;14.57;;;9.38;;
38972;SDS011;25333;50.762;4.470;2023-07-20T07:18:04;11.68;;;8.55;;
38972;SDS011;25333;50.762;4.470;2023-07-20T07:20:30;10.32;;;7.75;;
38972;SDS011;25333;50.762;4.470;2023-07-20T07:22:55;11.77;;;7.40;;
38972;SDS011;25333;50.762;4.470;2023-07-20T07:25:22;10.30;;;7.70;;
38972;SDS011;25333;50.762;4.470;2023-07-20T07:27:47;17.27;;;10.10;;
38972;SDS011;25333;50.762;4.470;2023-07-20T07:30:13;8.97;;;7.87;;
38972;SDS011;25333;50.762;4.470;2023-07-20T07:32:39;12.07;;;8.85;;
38972;SDS011;25333;50.762;4.470;2023-07-20T07:35:06;9.13;;;6.70;;
38972;SDS011;25333;50.762;4.470;2023-07-20T07:37:32;8.63;;;5.38;;
38972;SDS011;25333;50.762;4.470;2023-07-20T07:39:57;7.82;;;6.15;;
38972;SDS011;25333;50.762;4.470;2023-07-20T07:42:23;6.72;;;4.47;;
38972;SDS011;25333;50.762;4.470;2023-07-20T07:44:49;7.05;;;4.05;;
38972;SDS011;25333;50.762;4.470;2023-07-20T07:47:14;5.50;;;4.13;;
38972;SDS011;25333;50.762;4.470;2023-07-20T07:49:40;6.03;;;3.90;;
38972;SDS011;25333;50.762;4.470;2023-07-20T07:52:06;5.13;;;3.27;;
38972;SDS011;25333;50.762;4.470;2023-07-20T07:54:31;4.53;;;2.93;;
38972;SDS011;25333;50.762;4.470;2023-07-20T07:56:57;3.35;;;2.67;;
38972;SDS011;25333;50.762;4.470;2023-07-20T07:59:23;4.38;;;2.45;;
38972;SDS011;25333;50.762;4.470;2023-07-20T08:01:48;4.18;;;2.33;;
38972;SDS011;25333;50.762;4.470;2023-07-20T08:04:14;4.45;;;2.78;;
38972;SDS011;25333;50.762;4.470;2023-07-20T08:06:40;4.10;;;2.87;;
38972;SDS011;25333;50.762;4.470;2023-07-20T08:09:05;5.50;;;3.93;;
38972;SDS011;25333;50.762;4.470;2023-07-20T08:11:31;4.57;;;3.30;;
38972;SDS011;25333;50.762;4.470;2023-07-20T08:13:59;3.88;;;2.70;;
38972;SDS011;25333;50.762;4.470;2023-07-20T08:16:25;5.23;;;2.77;;
38972;SDS011;25333;50.762;4.470;2023-07-20T08:18:51;5.07;;;3.63;;
38972;SDS011;25333;50.762;4.470;2023-07-20T08:21:17;5.70;;;3.67;;
38972;SDS011;25333;50.762;4.470;2023-07-20T08:23:42;5.33;;;3.90;;
38972;SDS011;25333;50.762;4.470;2023-07-20T08:26:08;4.70;;;3.30;;
38972;SDS011;25333;50.762;4.470;2023-07-20T08:28:34;4.97;;;2.90;;
38972;SDS011;25333;50.762;4.470;2023-07-20T08:31:00;4.65;;;2.45;;
38972;SDS011;25333;50.762;4.470;2023-07-20T08:33:25;2.33;;;1.80;;
38972;SDS011;25333;50.762;4.470;2023-07-20T08:35:54;2.10;;;1.52;;
38972;SDS011;25333;50.762;4.470;2023-07-20T08:38:21;3.33;;;1.73;;
38972;SDS011;25333;50.762;4.470;2023-07-20T08:40:47;3.85;;;1.58;;
38972;SDS011;25333;50.762;4.470;2023-07-20T08:43:13;3.80;;;1.80;;
38972;SDS011;25333;50.762;4.470;2023-07-20T08:45:42;2.53;;;1.42;;
38972;SDS011;25333;50.762;4.470;2023-07-20T08:48:10;3.00;;;2.00;;
38972;SDS011;25333;50.762;4.470;2023-07-20T08:50:37;4.23;;;1.50;;
38972;SDS011;25333;50.762;4.470;2023-07-20T08:53:03;2.83;;;1.40;;
38972;SDS011;25333;50.762;4.470;2023-07-20T08:55:29;3.73;;;1.93;;
38972;SDS011;25333;50.762;4.470;2023-07-20T08:57:57;2.70;;;1.10;;
38972;SDS011;25333;50.762;4.470;2023-07-20T09:00:24;2.72;;;1.02;;
38972;SDS011;25333;50.762;4.470;2023-07-20T09:02:53;2.45;;;1.02;;
38972;SDS011;25333;50.762;4.470;2023-07-20T09:05:19;2.45;;;1.65;;
38972;SDS011;25333;50.762;4.470;2023-07-20T09:07:45;1.92;;;0.82;;
38972;SDS011;25333;50.762;4.470;2023-07-20T09:10:11;2.67;;;1.00;;
38972;SDS011;25333;50.762;4.470;2023-07-20T09:12:38;1.95;;;1.10;;
38972;SDS011;25333;50.762;4.470;2023-07-20T09:15:05;2.08;;;0.70;;
38972;SDS011;25333;50.762;4.470;2023-07-20T09:17:32;1.90;;;0.80;;
38972;SDS011;25333;50.762;4.470;2023-07-20T09:19:58;0.85;;;0.50;;
38972;SDS011;25333;50.762;4.470;2023-07-20T09:22:30;1.88;;;1.02;;
38972;SDS011;25333;50.762;4.470;2023-07-20T09:24:56;1.90;;;0.95;;
38972;SDS011;25333;50.762;4.470;2023-07-20T09:27:29;1.25;;;0.50;;
38972;SDS011;25333;50.762;4.470;2023-07-20T09:30:03;1.70;;;0.68;;
38972;SDS011;25333;50.762;4.470;2023-07-20T09:32:30;2.50;;;0.63;;
38972;SDS011;25333;50.762;4.470;2023-07-20T09:34:55;1.50;;;0.80;;
38972;SDS011;25333;50.762;4.470;2023-07-20T09:37:21;3.38;;;1.00;;
38972;SDS011;25333;50.762;4.470;2023-07-20T09:39:47;1.83;;;0.75;;
38972;SDS011;25333;50.762;4.470;2023-07-20T09:42:14;0.98;;;0.43;;
38972;SDS011;25333;50.762;4.470;2023-07-20T09:44:43;2.28;;;0.77;;
38972;SDS011;25333;50.762;4.470;2023-07-20T09:47:09;0.60;;;0.50;;
38972;SDS011;25333;50.762;4.470;2023-07-20T09:49:43;1.17;;;0.52;;
38972;SDS011;25333;50.762;4.470;2023-07-20T09:52:09;0.55;;;0.30;;
38972;SDS011;25333;50.762;4.470;2023-07-20T09:54:39;0.68;;;0.25;;
38972;SDS011;25333;50.762;4.470;2023-07-20T09:57:08;1.23;;;0.40;;
38972;SDS011;25333;50.762;4.470;2023-07-20T09:59:34;1.52;;;0.70;;
38972;SDS011;25333;50.762;4.470;2023-07-20T10:02:00;1.13;;;0.50;;
38972;SDS011;25333;50.762;4.470;2023-07-20T10:04:28;0.60;;;0.40;;
38972;SDS011;25333;50.762;4.470;2023-07-20T10:06:55;1.75;;;0.43;;
38972;SDS011;25333;50.762;4.470;2023-07-20T10:09:24;0.98;;;0.35;;
38972;SDS011;25333;50.762;4.470;2023-07-20T10:11:50;1.45;;;0.70;;
38972;SDS011;25333;50.762;4.470;2023-07-20T10:14:19;1.90;;;0.65;;
38972;SDS011;25333;50.762;4.470;2023-07-20T10:16:53;2.30;;;0.50;;
38972;SDS011;25333;50.762;4.470;2023-07-20T10:19:23;1.02;;;0.50;;
38972;SDS011;25333;50.762;4.470;2023-07-20T10:22:07;2.22;;;0.77;;
38972;SDS011;25333;50.762;4.470;2023-07-20T10:24:38;0.95;;;0.40;;
38972;SDS011;25333;50.762;4.470;2023-07-20T10:27:04;1.07;;;0.50;;
38972;SDS011;25333;50.762;4.470;2023-07-20T10:29:30;0.75;;;0.52;;
38972;SDS011;25333;50.762;4.470;2023-07-20T10:31:57;1.35;;;0.65;;
38972;SDS011;25333;50.762;4.470;2023-07-20T10:34:23;1.00;;;0.50;;
38972;SDS011;25333;50.762;4.470;2023-07-20T10:36:49;2.03;;;0.83;;
38972;SDS011;25333;50.762;4.470;2023-07-20T10:41:50;2.10;;;0.75;;
38972;SDS011;25333;50.762;4.470;2023-07-20T10:44:24;1.30;;;0.68;;
38972;SDS011;25333;50.762;4.470;2023-07-20T10:46:50;0.90;;;0.60;;
38972;SDS011;25333;50.762;4.470;2023-07-20T10:49:23;1.02;;;0.63;;
38972;SDS011;25333;50.762;4.470;2023-07-20T10:51:55;1.63;;;0.65;;
38972;SDS011;25333;50.762;4.470;2023-07-20T10:56:49;1.40;;;0.90;;
38972;SDS011;25333;50.762;4.470;2023-07-20T10:59:19;1.45;;;0.95;;
38972;SDS011;25333;50.762;4.470;2023-07-20T11:01:45;1.67;;;0.75;;
38972;SDS011;25333;50.762;4.470;2023-07-20T11:04:14;1.50;;;1.10;;
38972;SDS011;25333;50.762;4.470;2023-07-20T11:06:45;2.47;;;0.93;;
38972;SDS011;25333;50.762;4.470;2023-07-20T11:09:12;1.80;;;1.23;;
38972;SDS011;25333;50.762;4.470;2023-07-20T11:11:43;1.58;;;1.27;;
38972;SDS011;25333;50.762;4.470;2023-07-20T11:16:48;3.10;;;1.35;;
38972;SDS011;25333;50.762;4.470;2023-07-20T11:19:25;1.10;;;0.73;;
38972;SDS011;25333;50.762;4.470;2023-07-20T11:24:18;3.03;;;1.17;;
38972;SDS011;25333;50.762;4.470;2023-07-20T11:26:53;1.73;;;1.13;;
38972;SDS011;25333;50.762;4.470;2023-07-20T11:29:20;1.10;;;0.80;;
38972;SDS011;25333;50.762;4.470;2023-07-20T11:31:48;2.03;;;1.20;;
38972;SDS011;25333;50.762;4.470;2023-07-20T11:34:17;3.10;;;1.30;;
38972;SDS011;25333;50.762;4.470;2023-07-20T11:36:48;2.75;;;1.20;;
38972;SDS011;25333;50.762;4.470;2023-07-20T11:39:17;2.00;;;1.23;;
38972;SDS011;25333;50.762;4.470;2023-07-20T11:41:50;2.65;;;1.20;;
38972;SDS011;25333;50.762;4.470;2023-07-20T11:44:18;2.88;;;1.60;;
38972;SDS011;25333;50.762;4.470;2023-07-20T11:46:46;1.90;;;1.02;;
38972;SDS011;25333;50.762;4.470;2023-07-20T11:49:12;1.27;;;0.98;;
38972;SDS011;25333;50.762;4.470;2023-07-20T11:51:38;1.50;;;1.15;;
38972;SDS011;25333;50.762;4.470;2023-07-20T11:54:06;1.45;;;1.17;;
38972;SDS011;25333;50.762;4.470;2023-07-20T11:56:33;1.48;;;0.98;;
38972;SDS011;25333;50.762;4.470;2023-07-20T11:58:58;3.70;;;1.30;;
38972;SDS011;25333;50.762;4.470;2023-07-20T12:01:26;2.50;;;1.70;;
38972;SDS011;25333;50.762;4.470;2023-07-20T12:04:00;2.33;;;1.30;;
38972;SDS011;25333;50.762;4.470;2023-07-20T12:06:30;2.00;;;1.40;;
38972;SDS011;25333;50.762;4.470;2023-07-20T12:08:59;1.83;;;0.88;;
38972;SDS011;25333;50.762;4.470;2023-07-20T12:11:32;2.83;;;1.20;;
38972;SDS011;25333;50.762;4.470;2023-07-20T12:13:58;2.45;;;1.40;;
38972;SDS011;25333;50.762;4.470;2023-07-20T12:16:26;1.92;;;1.10;;
38972;SDS011;25333;50.762;4.470;2023-07-20T12:19:00;3.05;;;1.35;;
38972;SDS011;25333;50.762;4.470;2023-07-20T12:21:36;3.42;;;1.88;;
38972;SDS011;25333;50.762;4.470;2023-07-20T12:24:05;2.30;;;1.30;;
38972;SDS011;25333;50.762;4.470;2023-07-20T12:26:32;2.33;;;1.23;;
38972;SDS011;25333;50.762;4.470;2023-07-20T12:28:59;2.13;;;1.13;;
38972;SDS011;25333;50.762;4.470;2023-07-20T12:31:26;2.30;;;1.50;;
38972;SDS011;25333;50.762;4.470;2023-07-20T12:33:52;2.28;;;1.10;;
38972;SDS011;25333;50.762;4.470;2023-07-20T12:36:21;1.55;;;1.02;;
38972;SDS011;25333;50.762;4.470;2023-07-20T12:38:47;3.03;;;1.40;;
38972;SDS011;25333;50.762;4.470;2023-07-20T12:41:13;2.25;;;1.27;;
38972;SDS011;25333;50.762;4.470;2023-07-20T12:43:42;1.58;;;1.17;;
38972;SDS011;25333;50.762;4.470;2023-07-20T12:46:09;3.53;;;1.00;;
38972;SDS011;25333;50.762;4.470;2023-07-20T12:48:37;1.70;;;1.30;;
38972;SDS011;25333;50.762;4.470;2023-07-20T12:51:05;2.17;;;1.15;;
38972;SDS011;25333;50.762;4.470;2023-07-20T12:53:31;1.40;;;1.02;;
38972;SDS011;25333;50.762;4.470;2023-07-20T12:55:57;2.17;;;0.93;;
38972;SDS011;25333;50.762;4.470;2023-07-20T12:58:23;1.00;;;0.70;;
38972;SDS011;25333;50.762;4.470;2023-07-20T13:00:49;2.37;;;1.10;;
38972;SDS011;25333;50.762;4.470;2023-07-20T13:03:15;1.70;;;0.93;;
38972;SDS011;25333;50.762;4.470;2023-07-20T13:05:41;2.55;;;1.00;;
38972;SDS011;25333;50.762;4.470;2023-07-20T13:08:07;3.60;;;1.60;;
38972;SDS011;25333;50.762;4.470;2023-07-20T13:10:32;3.27;;;1.30;;
38972;SDS011;25333;50.762;4.470;2023-07-20T13:12:59;2.10;;;1.20;;
38972;SDS011;25333;50.762;4.470;2023-07-20T13:15:29;1.80;;;0.95;;
38972;SDS011;25333;50.762;4.470;2023-07-20T13:17:57;1.98;;;1.00;;
38972;SDS011;25333;50.762;4.470;2023-07-20T13:20:23;1.40;;;0.90;;
38972;SDS011;25333;50.762;4.470;2023-07-20T13:22:49;2.22;;;1.05;;
38972;SDS011;25333;50.762;4.470;2023-07-20T13:25:15;2.45;;;1.20;;
38972;SDS011;25333;50.762;4.470;2023-07-20T13:27:41;2.03;;;1.17;;
38972;SDS011;25333;50.762;4.470;2023-07-20T13:30:07;2.43;;;1.00;;
38972;SDS011;25333;50.762;4.470;2023-07-20T13:32:34;2.90;;;1.10;;
38972;SDS011;25333;50.762;4.470;2023-07-20T13:35:01;1.23;;;0.70;;
38972;SDS011;25333;50.762;4.470;2023-07-20T13:37:27;2.80;;;1.10;;
38972;SDS011;25333;50.762;4.470;2023-07-20T13:39:53;1.80;;;0.90;;
38972;SDS011;25333;50.762;4.470;2023-07-20T13:42:19;1.92;;;0.60;;
38972;SDS011;25333;50.762;4.470;2023-07-20T13:44:46;1.60;;;1.00;;
38972;SDS011;25333;50.762;4.470;2023-07-20T13:47:12;1.60;;;0.88;;
38972;SDS011;25333;50.762;4.470;2023-07-20T13:49:39;1.83;;;0.77;;
38972;SDS011;25333;50.762;4.470;2023-07-20T13:52:04;2.60;;;1.40;;
38972;SDS011;25333;50.762;4.470;2023-07-20T13:54:30;2.25;;;0.77;;
38972;SDS011;25333;50.762;4.470;2023-07-20T13:56:56;3.50;;;1.07;;
38972;SDS011;25333;50.762;4.470;2023-07-20T13:59:22;2.10;;;0.97;;
38972;SDS011;25333;50.762;4.470;2023-07-20T14:01:48;2.05;;;0.95;;
38972;SDS011;25333;50.762;4.470;2023-07-20T14:04:14;1.27;;;0.90;;
38972;SDS011;25333;50.762;4.470;2023-07-20T14:06:40;1.70;;;1.00;;
38972;SDS011;25333;50.762;4.470;2023-07-20T14:09:05;2.88;;;1.48;;
38972;SDS011;25333;50.762;4.470;2023-07-20T14:11:31;1.23;;;0.97;;
38972;SDS011;25333;50.762;4.470;2023-07-20T14:13:57;2.00;;;1.00;;
38972;SDS011;25333;50.762;4.470;2023-07-20T14:16:25;2.85;;;0.90;;
38972;SDS011;25333;50.762;4.470;2023-07-20T14:18:51;1.30;;;0.88;;
38972;SDS011;25333;50.762;4.470;2023-07-20T14:21:18;2.33;;;0.97;;
38972;SDS011;25333;50.762;4.470;2023-07-20T14:23:45;1.30;;;0.88;;
38972;SDS011;25333;50.762;4.470;2023-07-20T14:26:12;2.50;;;1.08;;
38972;SDS011;25333;50.762;4.470;2023-07-20T14:28:38;2.27;;;0.97;;
38972;SDS011;25333;50.762;4.470;2023-07-20T14:31:04;1.93;;;1.13;;
38972;SDS011;25333;50.762;4.470;2023-07-20T14:33:30;1.80;;;1.00;;
38972;SDS011;25333;50.762;4.470;2023-07-20T14:35:55;2.05;;;1.02;;
38972;SDS011;25333;50.762;4.470;2023-07-20T14:38:21;1.35;;;0.70;;
38972;SDS011;25333;50.762;4.470;2023-07-20T14:40:47;1.77;;;0.90;;
38972;SDS011;25333;50.762;4.470;2023-07-20T14:43:12;1.45;;;1.00;;
38972;SDS011;25333;50.762;4.470;2023-07-20T14:45:39;1.17;;;0.73;;
38972;SDS011;25333;50.762;4.470;2023-07-20T14:48:06;2.40;;;0.90;;
38972;SDS011;25333;50.762;4.470;2023-07-20T14:50:32;1.80;;;0.70;;
38972;SDS011;25333;50.762;4.470;2023-07-20T14:52:58;2.05;;;0.93;;
38972;SDS011;25333;50.762;4.470;2023-07-20T14:55:23;3.00;;;1.30;;
38972;SDS011;25333;50.762;4.470;2023-07-20T14:57:50;1.38;;;0.85;;
38972;SDS011;25333;50.762;4.470;2023-07-20T15:00:16;1.60;;;0.90;;